This is the latest recevied weather packets stored in our database for station/object KC3ROS. If no packets are shown the sender has not sent any weather packets the latest 10 day(s).
| Time | Temp. | Humidity | Pressure | Rain* | Wind** | Luminosity | Snow |
|---|---|---|---|---|---|---|---|
| 1777997685 | 21.67° C | 58% | 1007.2 hPa | 0 mm | - | 261 W/m² | - |
| 1777997383 | 20.56° C | 59% | 1007.2 hPa | 0 mm | - | 447 W/m² | - |
| 1777997081 | 20.56° C | 62% | 1007.3 hPa | 0 mm | - | 242 W/m² | - |
| 1777996777 | 21.11° C | 61% | 1007.1 hPa | 0 mm | - | 173 W/m² | - |
| 1777996473 | 20.56° C | 63% | 1007 hPa | 0 mm | - | 219 W/m² | - |
| 1777996170 | 21.11° C | 61% | 1007 hPa | 0 mm | - | 187 W/m² | - |
| 1777995866 | 20° C | 62% | 1007.2 hPa | 0 mm | - | 323 W/m² | - |
| 1777995562 | 20° C | 64% | 1007.6 hPa | 0 mm | - | 217 W/m² | - |
| 1777995260 | 20° C | 63% | 1007.3 hPa | 0 mm | - | 158 W/m² | - |
| 1777994957 | 20° C | 61% | 1007.2 hPa | 0 mm | - | 205 W/m² | - |
| 1777994654 | 20° C | 65% | 1007.4 hPa | 0 mm | - | 253 W/m² | - |
| 1777994348 | 20° C | 63% | 1007.3 hPa | 0 mm | - | 121 W/m² | - |
| 1777994045 | 20° C | 61% | 1007.3 hPa | 0 mm | - | 204 W/m² | - |
| 1777993741 | 19.44° C | 64% | 1007 hPa | 0 mm | - | 327 W/m² | - |
| 1777993438 | 19.44° C | 62% | 1007.1 hPa | 0 mm | - | 279 W/m² | - |
| 1777993133 | 19.44° C | 63% | 1006.9 hPa | 0 mm | - | 207 W/m² | - |
| 1777992831 | 19.44° C | 63% | 1006.9 hPa | 0 mm | - | 207 W/m² | - |
| 1777992528 | 19.44° C | 63% | 1006.8 hPa | 0 mm | - | 176 W/m² | - |
| 1777992227 | 19.44° C | 63% | 1006.8 hPa | 0 mm | - | 215 W/m² | - |
| 1777991923 | 19.44° C | 63% | 1006.9 hPa | 0 mm | - | 321 W/m² | - |
| 1777991621 | 20° C | 63% | 1006.8 hPa | 0 mm | - | 205 W/m² | - |
| 1777991318 | 20° C | 62% | 1007 hPa | 0 mm | - | 202 W/m² | - |
| 1777991010 | 20° C | 64% | 1007 hPa | 0 mm | - | 289 W/m² | - |
| 1777990707 | 20° C | 62% | 1007.1 hPa | 0 mm | - | 374 W/m² | - |
| 1777990404 | 19.44° C | 65% | 1007.2 hPa | 0 mm | - | 300 W/m² | - |
* Rain latest hour (hover to see other rain measurements)
** Current wind speed in m/s (hover to see current wind gust speed)